Terminal Aerodrome Forecast
Issued by NWS North Platte, NE

Home | Current Version | Previous Version | Graphics & Text | Print | Product List | Glossary On
Versions: 1 2 3 4 5 6 7 8 9 10 11 12 13 14 15 16
019
FTUS43 KLBF 052248 AAB
TAFVTN
TAF AMD
KVTN 052248Z 0523/0618 31010KT P6SM FEW030
     FM060200 28007KT P6SM FEW250
     FM060800 25007KT P6SM FEW250=

USA.gov is the U.S. government's official web portal to all federal, state and local government web resources and services.